sensor_id;sensor_type;location;lat;lon;timestamp;pressure;altitude;pressure_sealevel;temperature;humidity
29935;BME280;19905;53.370;-6.314;2022-07-06T00:00:07;102554.78;;;16.00;100.00
29935;BME280;19905;53.370;-6.314;2022-07-06T00:02:38;102556.16;;;16.06;100.00
29935;BME280;19905;53.370;-6.314;2022-07-06T00:05:07;102565.09;;;15.92;100.00
29935;BME280;19905;53.370;-6.314;2022-07-06T00:07:37;102570.44;;;15.92;100.00
29935;BME280;19905;53.370;-6.314;2022-07-06T00:10:08;102562.13;;;15.96;100.00
29935;BME280;19905;53.370;-6.314;2022-07-06T00:12:36;102567.25;;;15.87;100.00
29935;BME280;19905;53.370;-6.314;2022-07-06T00:15:06;102575.13;;;15.88;100.00
29935;BME280;19905;53.370;-6.314;2022-07-06T00:17:35;102579.06;;;15.83;100.00
29935;BME280;19905;53.370;-6.314;2022-07-06T00:20:04;102582.16;;;15.77;100.00
29935;BME280;19905;53.370;-6.314;2022-07-06T00:22:33;102583.41;;;15.71;100.00
29935;BME280;19905;53.370;-6.314;2022-07-06T00:25:02;102591.53;;;15.69;100.00
29935;BME280;19905;53.370;-6.314;2022-07-06T00:27:32;102583.84;;;15.65;100.00
29935;BME280;19905;53.370;-6.314;2022-07-06T00:30:01;102591.25;;;15.60;100.00
29935;BME280;19905;53.370;-6.314;2022-07-06T00:32:29;102593.28;;;15.56;100.00
29935;BME280;19905;53.370;-6.314;2022-07-06T00:34:57;102590.50;;;15.58;100.00
29935;BME280;19905;53.370;-6.314;2022-07-06T00:37:27;102593.56;;;15.51;100.00
29935;BME280;19905;53.370;-6.314;2022-07-06T00:39:55;102602.66;;;15.49;100.00
29935;BME280;19905;53.370;-6.314;2022-07-06T00:42:24;102602.72;;;15.47;100.00
29935;BME280;19905;53.370;-6.314;2022-07-06T00:44:54;102597.41;;;15.47;100.00
29935;BME280;19905;53.370;-6.314;2022-07-06T00:47:23;102589.41;;;15.47;100.00
29935;BME280;19905;53.370;-6.314;2022-07-06T00:49:51;102578.03;;;15.45;100.00
29935;BME280;19905;53.370;-6.314;2022-07-06T00:52:37;102575.66;;;15.41;100.00
29935;BME280;19905;53.370;-6.314;2022-07-06T00:55:07;102571.81;;;15.32;100.00
29935;BME280;19905;53.370;-6.314;2022-07-06T00:57:36;102571.63;;;15.35;100.00
29935;BME280;19905;53.370;-6.314;2022-07-06T01:00:08;102568.00;;;15.36;100.00
29935;BME280;19905;53.370;-6.314;2022-07-06T01:02:38;102574.16;;;15.37;100.00
29935;BME280;19905;53.370;-6.314;2022-07-06T01:05:09;102578.03;;;15.45;100.00
29935;BME280;19905;53.370;-6.314;2022-07-06T01:07:40;102582.88;;;15.26;100.00
29935;BME280;19905;53.370;-6.314;2022-07-06T01:10:11;102586.59;;;15.23;100.00
29935;BME280;19905;53.370;-6.314;2022-07-06T01:12:42;102584.34;;;15.17;100.00
29935;BME280;19905;53.370;-6.314;2022-07-06T01:15:15;102580.59;;;15.20;100.00
29935;BME280;19905;53.370;-6.314;2022-07-06T01:17:44;102582.06;;;15.11;100.00
29935;BME280;19905;53.370;-6.314;2022-07-06T01:20:15;102576.09;;;15.08;100.00
29935;BME280;19905;53.370;-6.314;2022-07-06T01:22:44;102580.97;;;15.01;100.00
29935;BME280;19905;53.370;-6.314;2022-07-06T01:25:14;102582.03;;;14.98;100.00
29935;BME280;19905;53.370;-6.314;2022-07-06T01:27:42;102581.06;;;14.99;100.00
29935;BME280;19905;53.370;-6.314;2022-07-06T01:30:14;102583.81;;;14.98;100.00
29935;BME280;19905;53.370;-6.314;2022-07-06T01:32:43;102592.75;;;14.97;100.00
29935;BME280;19905;53.370;-6.314;2022-07-06T01:35:14;102589.06;;;14.99;100.00
29935;BME280;19905;53.370;-6.314;2022-07-06T01:37:43;102569.66;;;14.97;100.00
29935;BME280;19905;53.370;-6.314;2022-07-06T01:40:12;102578.09;;;15.04;100.00
29935;BME280;19905;53.370;-6.314;2022-07-06T01:42:40;102580.41;;;14.96;100.00
29935;BME280;19905;53.370;-6.314;2022-07-06T01:45:10;102573.81;;;15.02;100.00
29935;BME280;19905;53.370;-6.314;2022-07-06T01:47:39;102567.00;;;14.97;100.00
29935;BME280;19905;53.370;-6.314;2022-07-06T01:50:08;102567.84;;;14.98;100.00
29935;BME280;19905;53.370;-6.314;2022-07-06T01:52:39;102561.66;;;14.97;100.00
29935;BME280;19905;53.370;-6.314;2022-07-06T01:55:08;102557.19;;;14.98;100.00
29935;BME280;19905;53.370;-6.314;2022-07-06T01:57:37;102555.72;;;14.94;100.00
29935;BME280;19905;53.370;-6.314;2022-07-06T02:00:07;102550.94;;;14.99;100.00
29935;BME280;19905;53.370;-6.314;2022-07-06T02:02:36;102540.59;;;14.94;100.00
29935;BME280;19905;53.370;-6.314;2022-07-06T02:05:05;102528.22;;;14.93;100.00
29935;BME280;19905;53.370;-6.314;2022-07-06T02:07:34;102521.75;;;14.97;100.00
29935;BME280;19905;53.370;-6.314;2022-07-06T02:10:04;102527.91;;;14.85;100.00
29935;BME280;19905;53.370;-6.314;2022-07-06T02:12:33;102534.75;;;14.89;100.00
29935;BME280;19905;53.370;-6.314;2022-07-06T02:15:02;102535.22;;;14.82;100.00
29935;BME280;19905;53.370;-6.314;2022-07-06T02:17:30;102536.75;;;14.86;100.00
29935;BME280;19905;53.370;-6.314;2022-07-06T02:19:59;102543.31;;;14.80;100.00
29935;BME280;19905;53.370;-6.314;2022-07-06T02:22:28;102546.72;;;14.82;100.00
29935;BME280;19905;53.370;-6.314;2022-07-06T02:24:57;102544.06;;;14.82;100.00
29935;BME280;19905;53.370;-6.314;2022-07-06T02:27:27;102543.03;;;14.85;100.00
29935;BME280;19905;53.370;-6.314;2022-07-06T02:29:55;102535.88;;;14.85;100.00
29935;BME280;19905;53.370;-6.314;2022-07-06T02:32:25;102531.72;;;14.81;100.00
29935;BME280;19905;53.370;-6.314;2022-07-06T02:34:54;102529.59;;;14.86;100.00
29935;BME280;19905;53.370;-6.314;2022-07-06T02:37:22;102522.28;;;14.90;100.00
29935;BME280;19905;53.370;-6.314;2022-07-06T02:39:51;102520.78;;;14.86;100.00
29935;BME280;19905;53.370;-6.314;2022-07-06T02:42:19;102527.69;;;14.88;100.00
29935;BME280;19905;53.370;-6.314;2022-07-06T02:44:49;102527.06;;;14.85;100.00
29935;BME280;19905;53.370;-6.314;2022-07-06T02:47:17;102525.25;;;14.85;100.00
29935;BME280;19905;53.370;-6.314;2022-07-06T02:49:46;102532.38;;;14.85;100.00
29935;BME280;19905;53.370;-6.314;2022-07-06T02:52:14;102532.81;;;14.91;100.00
29935;BME280;19905;53.370;-6.314;2022-07-06T02:54:43;102535.66;;;14.88;100.00
29935;BME280;19905;53.370;-6.314;2022-07-06T02:57:11;102519.94;;;14.85;100.00
29935;BME280;19905;53.370;-6.314;2022-07-06T02:59:40;102525.97;;;14.87;100.00
29935;BME280;19905;53.370;-6.314;2022-07-06T03:02:10;102526.75;;;14.89;100.00
29935;BME280;19905;53.370;-6.314;2022-07-06T03:04:39;102522.53;;;14.99;100.00
29935;BME280;19905;53.370;-6.314;2022-07-06T03:07:08;102520.47;;;14.90;100.00
29935;BME280;19905;53.370;-6.314;2022-07-06T03:09:36;102525.88;;;14.89;100.00
29935;BME280;19905;53.370;-6.314;2022-07-06T03:12:06;102530.16;;;14.91;100.00
29935;BME280;19905;53.370;-6.314;2022-07-06T03:14:35;102523.13;;;14.90;100.00
29935;BME280;19905;53.370;-6.314;2022-07-06T03:17:05;102520.47;;;14.90;100.00
29935;BME280;19905;53.370;-6.314;2022-07-06T03:19:35;102534.25;;;14.83;100.00
29935;BME280;19905;53.370;-6.314;2022-07-06T03:22:03;102527.91;;;14.85;100.00
29935;BME280;19905;53.370;-6.314;2022-07-06T03:24:32;102533.31;;;14.84;100.00
29935;BME280;19905;53.370;-6.314;2022-07-06T03:27:00;102536.19;;;14.81;100.00
29935;BME280;19905;53.370;-6.314;2022-07-06T03:29:29;102535.88;;;14.85;100.00
29935;BME280;19905;53.370;-6.314;2022-07-06T03:31:58;102541.00;;;14.88;100.00
29935;BME280;19905;53.370;-6.314;2022-07-06T03:34:27;102541.22;;;14.85;100.00
29935;BME280;19905;53.370;-6.314;2022-07-06T03:36:57;102544.81;;;14.84;100.00
29935;BME280;19905;53.370;-6.314;2022-07-06T03:39:28;102545.69;;;14.85;100.00
29935;BME280;19905;53.370;-6.314;2022-07-06T03:41:56;102545.03;;;14.81;100.00
29935;BME280;19905;53.370;-6.314;2022-07-06T03:44:25;102551.63;;;14.88;100.00
29935;BME280;19905;53.370;-6.314;2022-07-06T03:46:54;102546.59;;;14.84;100.00
29935;BME280;19905;53.370;-6.314;2022-07-06T03:49:22;102545.09;;;14.80;100.00
29935;BME280;19905;53.370;-6.314;2022-07-06T03:51:54;102535.41;;;14.79;100.00
29935;BME280;19905;53.370;-6.314;2022-07-06T03:54:24;102535.34;;;14.80;100.00
29935;BME280;19905;53.370;-6.314;2022-07-06T03:56:52;102526.69;;;14.77;100.00
29935;BME280;19905;53.370;-6.314;2022-07-06T03:59:21;102527.06;;;14.85;100.00
29935;BME280;19905;53.370;-6.314;2022-07-06T04:01:49;102521.44;;;14.75;100.00
29935;BME280;19905;53.370;-6.314;2022-07-06T04:04:20;102533.06;;;14.74;100.00
29935;BME280;19905;53.370;-6.314;2022-07-06T04:06:49;102535.72;;;14.74;100.00
29935;BME280;19905;53.370;-6.314;2022-07-06T04:09:18;102540.47;;;14.69;100.00
29935;BME280;19905;53.370;-6.314;2022-07-06T04:11:49;102535.72;;;14.74;100.00
29935;BME280;19905;53.370;-6.314;2022-07-06T04:14:19;102541.03;;;14.74;100.00
29935;BME280;19905;53.370;-6.314;2022-07-06T04:16:47;102537.81;;;14.69;100.00
29935;BME280;19905;53.370;-6.314;2022-07-06T04:19:16;102532.63;;;14.67;100.00
29935;BME280;19905;53.370;-6.314;2022-07-06T04:21:46;102538.91;;;14.66;100.00
29935;BME280;19905;53.370;-6.314;2022-07-06T04:24:15;102533.47;;;14.68;100.00
29935;BME280;19905;53.370;-6.314;2022-07-06T04:26:45;102536.13;;;14.68;100.00
29935;BME280;19905;53.370;-6.314;2022-07-06T04:29:16;102529.41;;;14.62;100.00
29935;BME280;19905;53.370;-6.314;2022-07-06T04:31:45;102537.63;;;14.72;100.00
29935;BME280;19905;53.370;-6.314;2022-07-06T04:34:16;102531.28;;;14.60;100.00
29935;BME280;19905;53.370;-6.314;2022-07-06T04:36:47;102527.47;;;14.64;100.00
29935;BME280;19905;53.370;-6.314;2022-07-06T04:39:15;102526.75;;;14.62;100.00
29935;BME280;19905;53.370;-6.314;2022-07-06T04:41:44;102525.59;;;14.66;100.00
29935;BME280;19905;53.370;-6.314;2022-07-06T04:44:12;102530.50;;;14.72;100.00
29935;BME280;19905;53.370;-6.314;2022-07-06T04:46:42;102539.63;;;14.68;100.00
29935;BME280;19905;53.370;-6.314;2022-07-06T04:49:11;102539.53;;;14.70;100.00
29935;BME280;19905;53.370;-6.314;2022-07-06T04:51:40;102524.78;;;14.79;100.00
29935;BME280;19905;53.370;-6.314;2022-07-06T04:54:10;102527.00;;;14.72;100.00
29935;BME280;19905;53.370;-6.314;2022-07-06T04:56:39;102511.41;;;14.66;100.00
29935;BME280;19905;53.370;-6.314;2022-07-06T04:59:08;102519.75;;;14.74;100.00
29935;BME280;19905;53.370;-6.314;2022-07-06T05:01:37;102515.09;;;14.78;100.00
29935;BME280;19905;53.370;-6.314;2022-07-06T05:04:09;102521.00;;;14.68;100.00
29935;BME280;19905;53.370;-6.314;2022-07-06T05:06:38;102524.94;;;14.63;100.00
29935;BME280;19905;53.370;-6.314;2022-07-06T05:09:07;102525.38;;;14.69;100.00
29935;BME280;19905;53.370;-6.314;2022-07-06T05:11:35;102512.28;;;14.66;100.00
29935;BME280;19905;53.370;-6.314;2022-07-06T05:14:04;102519.00;;;14.72;100.00
29935;BME280;19905;53.370;-6.314;2022-07-06T05:16:34;102525.78;;;14.63;100.00
29935;BME280;19905;53.370;-6.314;2022-07-06T05:19:03;102523.94;;;14.78;100.00
29935;BME280;19905;53.370;-6.314;2022-07-06T05:21:34;102524.53;;;14.69;100.00
29935;BME280;19905;53.370;-6.314;2022-07-06T05:24:03;102521.69;;;14.72;100.00
29935;BME280;19905;53.370;-6.314;2022-07-06T05:26:32;102517.66;;;14.79;100.00
29935;BME280;19905;53.370;-6.314;2022-07-06T05:29:01;102517.00;;;14.76;100.00
29935;BME280;19905;53.370;-6.314;2022-07-06T05:31:31;102528.84;;;14.84;100.00
29935;BME280;19905;53.370;-6.314;2022-07-06T05:34:01;102521.25;;;14.78;100.00
29935;BME280;19905;53.370;-6.314;2022-07-06T05:36:30;102530.75;;;14.82;100.00
29935;BME280;19905;53.370;-6.314;2022-07-06T05:39:00;102522.66;;;14.84;100.00
29935;BME280;19905;53.370;-6.314;2022-07-06T05:41:29;102526.16;;;14.84;100.00
29935;BME280;19905;53.370;-6.314;2022-07-06T05:43:58;102519.38;;;14.80;100.00
29935;BME280;19905;53.370;-6.314;2022-07-06T05:46:27;102511.78;;;14.74;100.00
29935;BME280;19905;53.370;-6.314;2022-07-06T05:48:56;102513.78;;;14.70;100.00
29935;BME280;19905;53.370;-6.314;2022-07-06T05:51:44;102510.72;;;14.77;100.00
29935;BME280;19905;53.370;-6.314;2022-07-06T05:54:15;102515.94;;;14.78;100.00
29935;BME280;19905;53.370;-6.314;2022-07-06T05:56:44;102505.19;;;14.80;100.00
29935;BME280;19905;53.370;-6.314;2022-07-06T05:59:12;102503.53;;;14.91;100.00
29935;BME280;19905;53.370;-6.314;2022-07-06T06:01:41;102502.88;;;14.88;100.00
29935;BME280;19905;53.370;-6.314;2022-07-06T06:04:10;102502.28;;;14.97;100.00
29935;BME280;19905;53.370;-6.314;2022-07-06T06:06:39;102510.06;;;15.00;100.00
29935;BME280;19905;53.370;-6.314;2022-07-06T06:09:07;102515.59;;;14.97;100.00
29935;BME280;19905;53.370;-6.314;2022-07-06T06:11:38;102505.41;;;15.04;100.00
29935;BME280;19905;53.370;-6.314;2022-07-06T06:14:07;102511.53;;;14.91;100.00
29935;BME280;19905;53.370;-6.314;2022-07-06T06:16:35;102517.81;;;14.90;100.00
29935;BME280;19905;53.370;-6.314;2022-07-06T06:19:04;102515.22;;;14.89;100.00
29935;BME280;19905;53.370;-6.314;2022-07-06T06:21:34;102512.25;;;14.81;100.00
29935;BME280;19905;53.370;-6.314;2022-07-06T06:24:06;102506.63;;;14.85;100.00
29935;BME280;19905;53.370;-6.314;2022-07-06T06:26:41;102503.34;;;14.94;100.00
29935;BME280;19905;53.370;-6.314;2022-07-06T06:29:10;102520.06;;;14.96;100.00
29935;BME280;19905;53.370;-6.314;2022-07-06T06:31:38;102511.41;;;14.93;100.00
29935;BME280;19905;53.370;-6.314;2022-07-06T06:34:08;102516.34;;;14.99;100.00
29935;BME280;19905;53.370;-6.314;2022-07-06T06:36:38;102517.63;;;15.06;100.00
29935;BME280;19905;53.370;-6.314;2022-07-06T06:39:07;102513.06;;;15.08;100.00
29935;BME280;19905;53.370;-6.314;2022-07-06T06:41:35;102520.66;;;15.14;100.00
29935;BME280;19905;53.370;-6.314;2022-07-06T06:44:05;102532.75;;;15.06;100.00
29935;BME280;19905;53.370;-6.314;2022-07-06T06:46:40;102518.09;;;15.13;100.00
29935;BME280;19905;53.370;-6.314;2022-07-06T06:49:09;102522.66;;;15.11;100.00
29935;BME280;19905;53.370;-6.314;2022-07-06T06:51:38;102523.72;;;15.08;100.00
29935;BME280;19905;53.370;-6.314;2022-07-06T06:54:06;102519.28;;;15.21;100.00
29935;BME280;19905;53.370;-6.314;2022-07-06T06:56:35;102515.34;;;15.27;100.00
29935;BME280;19905;53.370;-6.314;2022-07-06T06:59:19;102518.66;;;15.31;100.00
29935;BME280;19905;53.370;-6.314;2022-07-06T07:01:48;102509.28;;;15.38;100.00
29935;BME280;19905;53.370;-6.314;2022-07-06T07:04:22;102520.69;;;15.52;100.00
29935;BME280;19905;53.370;-6.314;2022-07-06T07:06:51;102507.91;;;15.58;100.00
29935;BME280;19905;53.370;-6.314;2022-07-06T07:09:20;102506.97;;;15.59;100.00
29935;BME280;19905;53.370;-6.314;2022-07-06T07:12:10;102504.69;;;15.67;100.00
29935;BME280;19905;53.370;-6.314;2022-07-06T07:14:51;102513.03;;;15.61;100.00
29935;BME280;19905;53.370;-6.314;2022-07-06T07:17:30;102509.34;;;15.63;100.00
29935;BME280;19905;53.370;-6.314;2022-07-06T07:19:59;102507.22;;;15.68;100.00
29935;BME280;19905;53.370;-6.314;2022-07-06T07:22:28;102510.31;;;15.75;100.00
29935;BME280;19905;53.370;-6.314;2022-07-06T07:24:57;102506.78;;;15.87;100.00
29935;BME280;19905;53.370;-6.314;2022-07-06T07:27:27;102500.94;;;15.95;100.00
29935;BME280;19905;53.370;-6.314;2022-07-06T07:29:57;102496.53;;;16.07;100.00
29935;BME280;19905;53.370;-6.314;2022-07-06T07:32:26;102498.00;;;16.23;100.00
29935;BME280;19905;53.370;-6.314;2022-07-06T07:34:56;102504.38;;;16.34;100.00
29935;BME280;19905;53.370;-6.314;2022-07-06T07:37:24;102486.16;;;16.27;100.00
29935;BME280;19905;53.370;-6.314;2022-07-06T07:40:01;102494.97;;;16.41;100.00
29935;BME280;19905;53.370;-6.314;2022-07-06T07:42:32;102494.38;;;16.24;100.00
29935;BME280;19905;53.370;-6.314;2022-07-06T07:45:04;102492.66;;;16.23;100.00
29935;BME280;19905;53.370;-6.314;2022-07-06T07:47:32;102501.50;;;16.37;100.00
29935;BME280;19905;53.370;-6.314;2022-07-06T07:50:02;102504.38;;;16.34;100.00
29935;BME280;19905;53.370;-6.314;2022-07-06T07:52:38;102494.41;;;16.48;100.00
29935;BME280;19905;53.370;-6.314;2022-07-06T07:55:08;102493.88;;;16.43;100.00
29935;BME280;19905;53.370;-6.314;2022-07-06T07:57:56;102495.25;;;16.49;100.00
29935;BME280;19905;53.370;-6.314;2022-07-06T08:00:27;102496.28;;;16.59;100.00
29935;BME280;19905;53.370;-6.314;2022-07-06T08:02:58;102497.31;;;16.69;100.00
29935;BME280;19905;53.370;-6.314;2022-07-06T08:05:28;102494.66;;;16.69;100.00
29935;BME280;19905;53.370;-6.314;2022-07-06T08:07:57;102498.56;;;16.76;100.00
29935;BME280;19905;53.370;-6.314;2022-07-06T08:10:31;102494.78;;;16.92;100.00
29935;BME280;19905;53.370;-6.314;2022-07-06T08:13:20;102489.44;;;16.92;100.00
29935;BME280;19905;53.370;-6.314;2022-07-06T08:15:57;102482.34;;;16.80;100.00
29935;BME280;19905;53.370;-6.314;2022-07-06T08:18:27;102476.66;;;16.84;100.00
29935;BME280;19905;53.370;-6.314;2022-07-06T08:20:58;102469.78;;;16.93;100.00
29935;BME280;19905;53.370;-6.314;2022-07-06T08:23:47;102461.22;;;17.12;100.00
29935;BME280;19905;53.370;-6.314;2022-07-06T08:26:18;102462.22;;;17.22;100.00
29935;BME280;19905;53.370;-6.314;2022-07-06T08:28:47;102462.78;;;17.03;100.00
29935;BME280;19905;53.370;-6.314;2022-07-06T08:31:19;102457.28;;;16.93;100.00
29935;BME280;19905;53.370;-6.314;2022-07-06T08:34:08;102471.41;;;17.07;100.00
29935;BME280;19905;53.370;-6.314;2022-07-06T08:36:37;102456.81;;;16.99;100.00
29935;BME280;19905;53.370;-6.314;2022-07-06T08:39:08;102462.09;;;17.12;100.00
29935;BME280;19905;53.370;-6.314;2022-07-06T08:41:44;102458.78;;;17.09;100.00
29935;BME280;19905;53.370;-6.314;2022-07-06T08:44:15;102458.97;;;17.30;100.00
29935;BME280;19905;53.370;-6.314;2022-07-06T08:46:49;102460.44;;;17.45;100.00
29935;BME280;19905;53.370;-6.314;2022-07-06T08:49:22;102458.88;;;17.42;100.00
29935;BME280;19905;53.370;-6.314;2022-07-06T08:51:51;102454.38;;;17.43;100.00
29935;BME280;19905;53.370;-6.314;2022-07-06T08:54:21;102444.19;;;17.37;100.00
29935;BME280;19905;53.370;-6.314;2022-07-06T08:56:56;102446.13;;;17.35;100.00
29935;BME280;19905;53.370;-6.314;2022-07-06T08:59:25;102442.59;;;17.45;100.00
29935;BME280;19905;53.370;-6.314;2022-07-06T09:01:57;102440.69;;;17.47;100.00
29935;BME280;19905;53.370;-6.314;2022-07-06T09:04:28;102433.38;;;17.72;100.00
29935;BME280;19905;53.370;-6.314;2022-07-06T09:06:57;102426.63;;;17.79;100.00
29935;BME280;19905;53.370;-6.314;2022-07-06T09:09:28;102431.50;;;17.74;100.00
29935;BME280;19905;53.370;-6.314;2022-07-06T09:11:58;102425.03;;;17.65;100.00
29935;BME280;19905;53.370;-6.314;2022-07-06T09:14:30;102429.03;;;17.82;100.00
29935;BME280;19905;53.370;-6.314;2022-07-06T09:17:04;102426.47;;;17.69;100.00
29935;BME280;19905;53.370;-6.314;2022-07-06T09:19:40;102423.91;;;17.68;100.00
29935;BME280;19905;53.370;-6.314;2022-07-06T09:22:08;102425.00;;;17.54;100.00
29935;BME280;19905;53.370;-6.314;2022-07-06T09:24:41;102422.69;;;17.72;100.00
29935;BME280;19905;53.370;-6.314;2022-07-06T09:27:16;102419.53;;;17.67;100.00
29935;BME280;19905;53.370;-6.314;2022-07-06T09:29:45;102430.38;;;17.65;100.00
29935;BME280;19905;53.370;-6.314;2022-07-06T09:32:20;102437.88;;;17.71;100.00
29935;BME280;19905;53.370;-6.314;2022-07-06T09:34:49;102427.34;;;17.81;100.00
29935;BME280;19905;53.370;-6.314;2022-07-06T09:37:17;102446.91;;;17.93;100.00
29935;BME280;19905;53.370;-6.314;2022-07-06T09:39:52;102427.69;;;17.99;100.00
29935;BME280;19905;53.370;-6.314;2022-07-06T09:42:25;102429.25;;;18.24;100.00
29935;BME280;19905;53.370;-6.314;2022-07-06T09:44:55;102426.44;;;18.25;100.00
29935;BME280;19905;53.370;-6.314;2022-07-06T09:47:26;102425.16;;;18.41;100.00
29935;BME280;19905;53.370;-6.314;2022-07-06T09:49:55;102425.97;;;18.20;100.00
29935;BME280;19905;53.370;-6.314;2022-07-06T09:52:25;102430.88;;;17.93;100.00
29935;BME280;19905;53.370;-6.314;2022-07-06T09:54:54;102426.50;;;17.92;100.00
29935;BME280;19905;53.370;-6.314;2022-07-06T09:57:22;102428.28;;;17.91;100.00
29935;BME280;19905;53.370;-6.314;2022-07-06T09:59:52;102424.78;;;18.02;100.00
29935;BME280;19905;53.370;-6.314;2022-07-06T10:02:21;102430.50;;;17.97;100.00
29935;BME280;19905;53.370;-6.314;2022-07-06T10:04:54;102423.81;;;18.03;100.00
29935;BME280;19905;53.370;-6.314;2022-07-06T10:07:25;102422.72;;;17.94;100.00
29935;BME280;19905;53.370;-6.314;2022-07-06T10:09:55;102409.34;;;17.94;100.00
29935;BME280;19905;53.370;-6.314;2022-07-06T10:12:25;102389.97;;;18.13;100.00
29935;BME280;19905;53.370;-6.314;2022-07-06T10:14:54;102388.22;;;18.35;100.00
29935;BME280;19905;53.370;-6.314;2022-07-06T10:17:23;102383.00;;;18.33;100.00
29935;BME280;19905;53.370;-6.314;2022-07-06T10:19:54;102380.63;;;18.08;100.00
29935;BME280;19905;53.370;-6.314;2022-07-06T10:22:30;102382.53;;;18.28;100.00
29935;BME280;19905;53.370;-6.314;2022-07-06T10:25:00;102393.44;;;18.36;100.00
29935;BME280;19905;53.370;-6.314;2022-07-06T10:27:33;102384.63;;;18.57;100.00
29935;BME280;19905;53.370;-6.314;2022-07-06T10:30:04;102374.97;;;18.65;100.00
29935;BME280;19905;53.370;-6.314;2022-07-06T10:32:35;102384.34;;;18.60;100.00
29935;BME280;19905;53.370;-6.314;2022-07-06T10:35:07;102381.13;;;18.77;100.00
29935;BME280;19905;53.370;-6.314;2022-07-06T10:37:37;102381.34;;;18.85;100.00
29935;BME280;19905;53.370;-6.314;2022-07-06T10:40:13;102372.44;;;19.05;100.00
29935;BME280;19905;53.370;-6.314;2022-07-06T10:43:00;102380.31;;;19.28;100.00
29935;BME280;19905;53.370;-6.314;2022-07-06T10:45:51;102368.78;;;19.37;100.00
29935;BME280;19905;53.370;-6.314;2022-07-06T10:48:21;102370.44;;;19.59;100.00
29935;BME280;19905;53.370;-6.314;2022-07-06T10:50:53;102372.19;;;19.70;100.00
29935;BME280;19905;53.370;-6.314;2022-07-06T10:53:25;102366.31;;;19.76;100.00
29935;BME280;19905;53.370;-6.314;2022-07-06T10:55:55;102375.03;;;19.78;100.00
29935;BME280;19905;53.370;-6.314;2022-07-06T10:58:41;102379.69;;;19.66;100.00
29935;BME280;19905;53.370;-6.314;2022-07-06T11:01:10;102388.28;;;19.70;100.00
29935;BME280;19905;53.370;-6.314;2022-07-06T11:03:41;102380.25;;;19.39;100.00
29935;BME280;19905;53.370;-6.314;2022-07-06T11:06:14;102381.69;;;19.43;100.00
29935;BME280;19905;53.370;-6.314;2022-07-06T11:08:55;102396.19;;;19.62;100.00
29935;BME280;19905;53.370;-6.314;2022-07-06T11:11:42;102386.53;;;19.59;100.00
29935;BME280;19905;53.370;-6.314;2022-07-06T11:14:13;102384.69;;;19.60;100.00
29935;BME280;19905;53.370;-6.314;2022-07-06T11:17:03;102371.94;;;19.73;100.00
29935;BME280;19905;53.370;-6.314;2022-07-06T11:19:32;102386.28;;;19.62;100.00
29935;BME280;19905;53.370;-6.314;2022-07-06T11:22:07;102390.53;;;19.65;100.00
29935;BME280;19905;53.370;-6.314;2022-07-06T11:24:38;102380.31;;;19.59;100.00
29935;BME280;19905;53.370;-6.314;2022-07-06T11:27:07;102375.88;;;19.69;100.00
29935;BME280;19905;53.370;-6.314;2022-07-06T11:29:36;102389.72;;;19.43;100.00
29935;BME280;19905;53.370;-6.314;2022-07-06T11:32:08;102375.75;;;19.19;100.00
29935;BME280;19905;53.370;-6.314;2022-07-06T11:34:39;102381.63;;;19.34;100.00
29935;BME280;19905;53.370;-6.314;2022-07-06T11:37:12;102378.19;;;19.22;100.00
29935;BME280;19905;53.370;-6.314;2022-07-06T11:39:43;102378.81;;;19.14;100.00
29935;BME280;19905;53.370;-6.314;2022-07-06T11:42:14;102380.72;;;19.23;100.00
29935;BME280;19905;53.370;-6.314;2022-07-06T11:44:45;102361.69;;;19.26;100.00
29935;BME280;19905;53.370;-6.314;2022-07-06T11:47:14;102358.03;;;19.58;100.00
29935;BME280;19905;53.370;-6.314;2022-07-06T11:49:50;102364.72;;;19.73;100.00
29935;BME280;19905;53.370;-6.314;2022-07-06T11:52:21;102365.78;;;20.11;100.00
29935;BME280;19905;53.370;-6.314;2022-07-06T11:54:57;102352.09;;;20.04;100.00
29935;BME280;19905;53.370;-6.314;2022-07-06T11:57:26;102351.41;;;20.02;100.00
29935;BME280;19905;53.370;-6.314;2022-07-06T11:59:59;102342.06;;;19.97;100.00
29935;BME280;19905;53.370;-6.314;2022-07-06T12:02:28;102352.84;;;20.36;100.00
29935;BME280;19905;53.370;-6.314;2022-07-06T12:04:57;102322.88;;;20.40;100.00
29935;BME280;19905;53.370;-6.314;2022-07-06T12:07:27;102332.47;;;20.43;100.00
29935;BME280;19905;53.370;-6.314;2022-07-06T12:09:56;102325.25;;;20.43;100.00
29935;BME280;19905;53.370;-6.314;2022-07-06T12:12:25;102328.66;;;20.74;100.00
29935;BME280;19905;53.370;-6.314;2022-07-06T12:14:55;102327.22;;;20.80;100.00
29935;BME280;19905;53.370;-6.314;2022-07-06T12:17:25;102344.47;;;20.39;100.00
29935;BME280;19905;53.370;-6.314;2022-07-06T12:19:54;102334.06;;;20.16;100.00
29935;BME280;19905;53.370;-6.314;2022-07-06T12:22:24;102343.50;;;20.20;100.00
29935;BME280;19905;53.370;-6.314;2022-07-06T12:24:55;102329.34;;;19.89;100.00
29935;BME280;19905;53.370;-6.314;2022-07-06T12:27:33;102332.84;;;19.70;100.00
29935;BME280;19905;53.370;-6.314;2022-07-06T12:30:13;102329.66;;;20.05;100.00
29935;BME280;19905;53.370;-6.314;2022-07-06T12:33:12;102337.59;;;20.26;100.00
29935;BME280;19905;53.370;-6.314;2022-07-06T12:35:42;102329.25;;;20.39;100.00
29935;BME280;19905;53.370;-6.314;2022-07-06T12:38:11;102313.00;;;20.50;100.00
29935;BME280;19905;53.370;-6.314;2022-07-06T12:40:41;102303.66;;;20.64;100.00
29935;BME280;19905;53.370;-6.314;2022-07-06T12:43:11;102318.66;;;20.47;100.00
29935;BME280;19905;53.370;-6.314;2022-07-06T12:45:40;102318.94;;;20.44;100.00
29935;BME280;19905;53.370;-6.314;2022-07-06T12:48:12;102316.94;;;20.46;100.00